sensor_id;sensor_type;location;lat;lon;timestamp;pressure;altitude;pressure_sealevel;temperature;humidity
16580;BME280;8402;51.466;6.806;2023-03-03T00:02:11;102069.19;;;3.18;93.13
16580;BME280;8402;51.466;6.806;2023-03-03T00:04:44;102066.38;;;3.13;93.18
16580;BME280;8402;51.466;6.806;2023-03-03T00:07:14;102065.56;;;3.12;94.36
16580;BME280;8402;51.466;6.806;2023-03-03T00:09:52;102059.53;;;3.17;93.41
16580;BME280;8402;51.466;6.806;2023-03-03T00:12:24;102069.19;;;3.18;93.38
16580;BME280;8402;51.466;6.806;2023-03-03T00:14:54;102075.28;;;3.25;92.51
16580;BME280;8402;51.466;6.806;2023-03-03T00:17:25;102080.06;;;3.23;92.74
16580;BME280;8402;51.466;6.806;2023-03-03T00:19:58;102083.66;;;3.17;93.39
16580;BME280;8402;51.466;6.806;2023-03-03T00:22:35;102089.03;;;3.17;93.46
16580;BME280;8402;51.466;6.806;2023-03-03T00:25:25;102096.94;;;3.12;94.20
16580;BME280;8402;51.466;6.806;2023-03-03T00:28:00;102090.91;;;3.16;93.44
16580;BME280;8402;51.466;6.806;2023-03-03T00:30:33;102096.84;;;3.18;93.01
16580;BME280;8402;51.466;6.806;2023-03-03T00:33:18;102102.09;;;3.25;93.93
16580;BME280;8402;51.466;6.806;2023-03-03T00:35:51;102101.53;;;3.23;93.46
16580;BME280;8402;51.466;6.806;2023-03-03T00:38:21;102094.53;;;3.22;93.64
16580;BME280;8402;51.466;6.806;2023-03-03T00:40:52;102093.91;;;3.20;93.88
16580;BME280;8402;51.466;6.806;2023-03-03T00:43:23;102099.88;;;3.22;93.35
16580;BME280;8402;51.466;6.806;2023-03-03T00:45:54;102098.69;;;3.18;94.01
16580;BME280;8402;51.466;6.806;2023-03-03T00:48:26;102113.63;;;3.14;94.41
16580;BME280;8402;51.466;6.806;2023-03-03T00:51:01;102109.78;;;3.10;94.15
16580;BME280;8402;51.466;6.806;2023-03-03T00:53:38;102106.97;;;3.04;95.04
16580;BME280;8402;51.466;6.806;2023-03-03T00:56:07;102108.59;;;3.06;94.79
16580;BME280;8402;51.466;6.806;2023-03-03T00:58:37;102118.16;;;3.01;95.74
16580;BME280;8402;51.466;6.806;2023-03-03T01:01:07;102114.28;;;2.97;96.28
16580;BME280;8402;51.466;6.806;2023-03-03T01:03:37;102107.88;;;2.98;95.26
16580;BME280;8402;51.466;6.806;2023-03-03T01:06:11;102110.56;;;2.98;96.27
16580;BME280;8402;51.466;6.806;2023-03-03T01:08:41;102110.81;;;3.09;95.02
16580;BME280;8402;51.466;6.806;2023-03-03T01:11:13;102123.75;;;3.12;95.46
16580;BME280;8402;51.466;6.806;2023-03-03T01:13:47;102110.50;;;3.17;94.48
16580;BME280;8402;51.466;6.806;2023-03-03T01:16:18;102110.72;;;3.15;94.15
16580;BME280;8402;51.466;6.806;2023-03-03T01:18:49;102124.94;;;3.16;94.23
16580;BME280;8402;51.466;6.806;2023-03-03T01:21:23;102110.34;;;3.12;94.33
16580;BME280;8402;51.466;6.806;2023-03-03T01:23:53;102118.88;;;3.09;95.22
16580;BME280;8402;51.466;6.806;2023-03-03T01:26:24;102112.91;;;3.07;94.62
16580;BME280;8402;51.466;6.806;2023-03-03T01:28:57;102111.75;;;3.02;94.62
16580;BME280;8402;51.466;6.806;2023-03-03T01:31:27;102112.31;;;3.04;94.47
16580;BME280;8402;51.466;6.806;2023-03-03T01:33:57;102114.75;;;3.06;95.55
16580;BME280;8402;51.466;6.806;2023-03-03T01:36:29;102113.13;;;3.05;94.62
16580;BME280;8402;51.466;6.806;2023-03-03T01:38:59;102120.50;;;3.10;94.05
16580;BME280;8402;51.466;6.806;2023-03-03T01:41:30;102113.50;;;3.09;94.38
16580;BME280;8402;51.466;6.806;2023-03-03T01:44:00;102104.41;;;3.10;94.52
16580;BME280;8402;51.466;6.806;2023-03-03T01:46:39;102108.25;;;3.14;94.50
16580;BME280;8402;51.466;6.806;2023-03-03T01:49:12;102110.00;;;3.20;94.21
16580;BME280;8402;51.466;6.806;2023-03-03T01:51:50;102110.16;;;3.25;93.69
16580;BME280;8402;51.466;6.806;2023-03-03T01:54:27;102121.44;;;3.27;93.17
16580;BME280;8402;51.466;6.806;2023-03-03T01:57:02;102103.59;;;3.21;93.56
16580;BME280;8402;51.466;6.806;2023-03-03T01:59:37;102110.38;;;3.23;93.48
16580;BME280;8402;51.466;6.806;2023-03-03T02:02:13;102116.56;;;3.24;93.13
16580;BME280;8402;51.466;6.806;2023-03-03T02:04:43;102109.56;;;3.23;92.92
16580;BME280;8402;51.466;6.806;2023-03-03T02:07:17;102107.56;;;3.18;92.93
16580;BME280;8402;51.466;6.806;2023-03-03T02:09:53;102102.44;;;3.17;92.86
16580;BME280;8402;51.466;6.806;2023-03-03T02:12:31;102101.97;;;3.08;93.33
16580;BME280;8402;51.466;6.806;2023-03-03T02:15:14;102102.06;;;3.01;93.92
16580;BME280;8402;51.466;6.806;2023-03-03T02:17:46;102095.13;;;2.82;96.43
16580;BME280;8402;51.466;6.806;2023-03-03T02:20:25;102093.84;;;2.85;95.77
16580;BME280;8402;51.466;6.806;2023-03-03T02:23:06;102099.00;;;2.86;95.63
16580;BME280;8402;51.466;6.806;2023-03-03T02:25:41;102101.97;;;2.78;96.04
16580;BME280;8402;51.466;6.806;2023-03-03T02:28:15;102098.88;;;2.81;95.27
16580;BME280;8402;51.466;6.806;2023-03-03T02:30:46;102095.13;;;2.82;95.42
16580;BME280;8402;51.466;6.806;2023-03-03T02:33:15;102106.09;;;2.81;95.57
16580;BME280;8402;51.466;6.806;2023-03-03T02:35:45;102096.19;;;2.81;95.34
16580;BME280;8402;51.466;6.806;2023-03-03T02:38:22;102114.38;;;2.79;95.69
16580;BME280;8402;51.466;6.806;2023-03-03T02:41:03;102112.13;;;2.76;95.54
16580;BME280;8402;51.466;6.806;2023-03-03T02:43:41;102115.28;;;2.73;96.62
16580;BME280;8402;51.466;6.806;2023-03-03T02:46:14;102106.91;;;2.81;95.16
16580;BME280;8402;51.466;6.806;2023-03-03T02:48:44;102109.34;;;2.83;95.41
16580;BME280;8402;51.466;6.806;2023-03-03T02:51:14;102102.25;;;2.88;94.60
16580;BME280;8402;51.466;6.806;2023-03-03T02:53:44;102108.44;;;2.89;95.29
16580;BME280;8402;51.466;6.806;2023-03-03T02:56:14;102118.03;;;2.96;94.69
16580;BME280;8402;51.466;6.806;2023-03-03T02:58:47;102111.28;;;3.06;94.94
16580;BME280;8402;51.466;6.806;2023-03-03T03:01:18;102114.66;;;3.13;94.47
16580;BME280;8402;51.466;6.806;2023-03-03T03:03:48;102117.81;;;3.21;93.61
16580;BME280;8402;51.466;6.806;2023-03-03T03:06:19;102113.63;;;3.25;93.02
16580;BME280;8402;51.466;6.806;2023-03-03T03:08:52;102115.84;;;3.28;93.08
16580;BME280;8402;51.466;6.806;2023-03-03T03:11:22;102114.13;;;3.34;92.68
16580;BME280;8402;51.466;6.806;2023-03-03T03:13:54;102114.25;;;3.39;92.45
16580;BME280;8402;51.466;6.806;2023-03-03T03:16:25;102113.75;;;3.42;91.78
16580;BME280;8402;51.466;6.806;2023-03-03T03:18:55;102118.09;;;3.43;91.92
16580;BME280;8402;51.466;6.806;2023-03-03T03:21:25;102115.88;;;3.40;91.36
16580;BME280;8402;51.466;6.806;2023-03-03T03:23:56;102124.16;;;3.39;91.38
16580;BME280;8402;51.466;6.806;2023-03-03T03:26:26;102125.91;;;3.33;91.31
16580;BME280;8402;51.466;6.806;2023-03-03T03:28:58;102124.75;;;3.29;91.12
16580;BME280;8402;51.466;6.806;2023-03-03T03:31:28;102123.31;;;3.26;91.40
16580;BME280;8402;51.466;6.806;2023-03-03T03:33:59;102136.72;;;3.26;91.83
16580;BME280;8402;51.466;6.806;2023-03-03T03:36:31;102136.38;;;3.23;91.61
16580;BME280;8402;51.466;6.806;2023-03-03T03:39:01;102138.94;;;3.18;92.26
16580;BME280;8402;51.466;6.806;2023-03-03T03:41:32;102135.31;;;3.12;92.64
16580;BME280;8402;51.466;6.806;2023-03-03T03:44:04;102129.50;;;3.15;91.92
16580;BME280;8402;51.466;6.806;2023-03-03T03:46:34;102133.56;;;3.18;91.85
16580;BME280;8402;51.466;6.806;2023-03-03T03:49:04;102127.03;;;3.14;92.61
16580;BME280;8402;51.466;6.806;2023-03-03T03:51:34;102126.56;;;3.17;91.62
16580;BME280;8402;51.466;6.806;2023-03-03T03:54:07;102123.41;;;3.08;92.14
16580;BME280;8402;51.466;6.806;2023-03-03T03:56:37;102135.88;;;3.02;92.55
16580;BME280;8402;51.466;6.806;2023-03-03T03:59:09;102149.13;;;2.97;93.02
16580;BME280;8402;51.466;6.806;2023-03-03T04:01:39;102150.28;;;2.90;93.30
16580;BME280;8402;51.466;6.806;2023-03-03T04:04:09;102146.06;;;2.82;94.16
16580;BME280;8402;51.466;6.806;2023-03-03T04:06:39;102147.06;;;2.69;95.25
16580;BME280;8402;51.466;6.806;2023-03-03T04:09:09;102147.44;;;2.73;94.29
16580;BME280;8402;51.466;6.806;2023-03-03T04:11:39;102161.16;;;2.65;96.49
16580;BME280;8402;51.466;6.806;2023-03-03T04:14:12;102152.50;;;2.63;95.66
16580;BME280;8402;51.466;6.806;2023-03-03T04:16:42;102151.59;;;2.69;94.94
16580;BME280;8402;51.466;6.806;2023-03-03T04:19:12;102144.88;;;2.78;94.33
16580;BME280;8402;51.466;6.806;2023-03-03T04:21:42;102144.19;;;2.83;93.99
16580;BME280;8402;51.466;6.806;2023-03-03T04:24:12;102143.97;;;2.84;93.55
16580;BME280;8402;51.466;6.806;2023-03-03T04:26:47;102145.31;;;2.93;93.23
16580;BME280;8402;51.466;6.806;2023-03-03T04:29:19;102149.63;;;2.94;93.48
16580;BME280;8402;51.466;6.806;2023-03-03T04:31:49;102126.06;;;2.96;93.22
16580;BME280;8402;51.466;6.806;2023-03-03T04:34:19;102145.88;;;2.95;93.60
16580;BME280;8402;51.466;6.806;2023-03-03T04:36:49;102138.88;;;2.94;93.45
16580;BME280;8402;51.466;6.806;2023-03-03T04:39:19;102151.34;;;2.89;93.56
16580;BME280;8402;51.466;6.806;2023-03-03T04:41:49;102132.81;;;2.87;93.62
16580;BME280;8402;51.466;6.806;2023-03-03T04:44:22;102139.22;;;2.98;94.38
16580;BME280;8402;51.466;6.806;2023-03-03T04:46:53;102146.75;;;3.08;93.63
16580;BME280;8402;51.466;6.806;2023-03-03T04:49:23;102148.47;;;3.14;93.37
16580;BME280;8402;51.466;6.806;2023-03-03T04:51:53;102150.13;;;3.15;92.76
16580;BME280;8402;51.466;6.806;2023-03-03T04:54:23;102145.22;;;3.12;93.35
16580;BME280;8402;51.466;6.806;2023-03-03T04:56:53;102153.84;;;3.14;92.68
16580;BME280;8402;51.466;6.806;2023-03-03T04:59:27;102141.13;;;3.09;92.69
16580;BME280;8402;51.466;6.806;2023-03-03T05:01:57;102141.22;;;3.02;93.03
16580;BME280;8402;51.466;6.806;2023-03-03T05:04:27;102160.72;;;3.10;92.93
16580;BME280;8402;51.466;6.806;2023-03-03T05:06:59;102150.59;;;3.12;92.98
16580;BME280;8402;51.466;6.806;2023-03-03T05:09:29;102151.72;;;3.04;92.81
16580;BME280;8402;51.466;6.806;2023-03-03T05:11:59;102149.41;;;3.08;92.86
16580;BME280;8402;51.466;6.806;2023-03-03T05:14:31;102140.91;;;3.11;93.08
16580;BME280;8402;51.466;6.806;2023-03-03T05:17:01;102152.69;;;3.10;92.91
16580;BME280;8402;51.466;6.806;2023-03-03T05:19:31;102147.41;;;3.03;92.57
16580;BME280;8402;51.466;6.806;2023-03-03T05:22:02;102143.78;;;2.97;92.71
16580;BME280;8402;51.466;6.806;2023-03-03T05:24:33;102145.78;;;3.02;92.76
16580;BME280;8402;51.466;6.806;2023-03-03T05:27:03;102150.44;;;3.07;92.73
16580;BME280;8402;51.466;6.806;2023-03-03T05:29:36;102149.41;;;3.08;92.75
16580;BME280;8402;51.466;6.806;2023-03-03T05:32:06;102140.75;;;3.06;92.38
16580;BME280;8402;51.466;6.806;2023-03-03T05:34:36;102144.06;;;3.08;92.39
16580;BME280;8402;51.466;6.806;2023-03-03T05:37:07;102146.84;;;3.01;91.67
16580;BME280;8402;51.466;6.806;2023-03-03T05:39:37;102164.78;;;3.00;92.40
16580;BME280;8402;51.466;6.806;2023-03-03T05:42:08;102155.69;;;3.01;92.33
16580;BME280;8402;51.466;6.806;2023-03-03T05:44:40;102148.69;;;3.00;92.19
16580;BME280;8402;51.466;6.806;2023-03-03T05:47:11;102155.69;;;3.01;92.27
16580;BME280;8402;51.466;6.806;2023-03-03T05:49:41;102160.59;;;3.04;92.19
16580;BME280;8402;51.466;6.806;2023-03-03T05:52:11;102164.09;;;3.05;91.86
16580;BME280;8402;51.466;6.806;2023-03-03T05:54:41;102165.50;;;3.08;92.07
16580;BME280;8402;51.466;6.806;2023-03-03T05:57:11;102163.19;;;3.11;92.03
16580;BME280;8402;51.466;6.806;2023-03-03T05:59:44;102166.75;;;3.05;91.77
16580;BME280;8402;51.466;6.806;2023-03-03T06:02:14;102164.47;;;3.09;91.79
16580;BME280;8402;51.466;6.806;2023-03-03T06:04:43;102165.50;;;3.08;91.71
16580;BME280;8402;51.466;6.806;2023-03-03T06:07:14;102160.16;;;3.08;91.56
16580;BME280;8402;51.466;6.806;2023-03-03T06:09:44;102169.81;;;3.09;91.35
16580;BME280;8402;51.466;6.806;2023-03-03T06:12:14;102161.31;;;3.12;91.28
16580;BME280;8402;51.466;6.806;2023-03-03T06:14:47;102168.31;;;3.13;91.23
16580;BME280;8402;51.466;6.806;2023-03-03T06:17:17;102169.22;;;3.07;91.54
16580;BME280;8402;51.466;6.806;2023-03-03T06:19:47;102184.50;;;3.06;91.62
16580;BME280;8402;51.466;6.806;2023-03-03T06:22:17;102187.25;;;2.99;91.87
16580;BME280;8402;51.466;6.806;2023-03-03T06:24:50;102183.84;;;2.92;92.20
16580;BME280;8402;51.466;6.806;2023-03-03T06:27:21;102190.41;;;2.96;91.90
16580;BME280;8402;51.466;6.806;2023-03-03T06:29:53;102198.69;;;2.95;92.14
16580;BME280;8402;51.466;6.806;2023-03-03T06:32:24;102200.22;;;3.02;92.12
16580;BME280;8402;51.466;6.806;2023-03-03T06:34:56;102205.13;;;3.06;92.17
16580;BME280;8402;51.466;6.806;2023-03-03T06:37:26;102206.31;;;3.10;91.92
16580;BME280;8402;51.466;6.806;2023-03-03T06:39:56;102202.13;;;3.14;91.95
16580;BME280;8402;51.466;6.806;2023-03-03T06:42:26;102193.06;;;3.15;91.60
16580;BME280;8402;51.466;6.806;2023-03-03T06:44:59;102208.19;;;3.21;91.02
16580;BME280;8402;51.466;6.806;2023-03-03T06:47:29;102215.22;;;3.22;90.97
16580;BME280;8402;51.466;6.806;2023-03-03T06:49:59;102219.66;;;3.28;91.07
16580;BME280;8402;51.466;6.806;2023-03-03T06:52:30;102218.50;;;3.24;90.54
16580;BME280;8402;51.466;6.806;2023-03-03T06:55:11;102223.13;;;3.17;90.56
16580;BME280;8402;51.466;6.806;2023-03-03T06:57:41;102217.78;;;3.17;91.18
16580;BME280;8402;51.466;6.806;2023-03-03T07:00:18;102221.94;;;3.13;91.11
16580;BME280;8402;51.466;6.806;2023-03-03T07:02:53;102231.41;;;3.15;90.69
16580;BME280;8402;51.466;6.806;2023-03-03T07:05:27;102221.22;;;3.06;91.29
16580;BME280;8402;51.466;6.806;2023-03-03T07:07:59;102232.03;;;2.99;91.65
16580;BME280;8402;51.466;6.806;2023-03-03T07:10:30;102231.22;;;2.98;90.98
16580;BME280;8402;51.466;6.806;2023-03-03T07:13:13;102227.88;;;3.03;91.50
16580;BME280;8402;51.466;6.806;2023-03-03T07:15:48;102225.41;;;3.01;91.31
16580;BME280;8402;51.466;6.806;2023-03-03T07:18:29;102224.38;;;3.02;91.44
16580;BME280;8402;51.466;6.806;2023-03-03T07:21:11;102227.63;;;3.04;91.62
16580;BME280;8402;51.466;6.806;2023-03-03T07:23:44;102228.69;;;3.03;91.21
16580;BME280;8402;51.466;6.806;2023-03-03T07:26:17;102235.66;;;3.04;91.36
16580;BME280;8402;51.466;6.806;2023-03-03T07:28:52;102233.91;;;2.98;91.22
16580;BME280;8402;51.466;6.806;2023-03-03T07:31:31;102241.50;;;3.01;91.51
16580;BME280;8402;51.466;6.806;2023-03-03T07:34:12;102237.03;;;2.95;92.33
16580;BME280;8402;51.466;6.806;2023-03-03T07:36:45;102254.09;;;3.01;91.63
16580;BME280;8402;51.466;6.806;2023-03-03T07:39:27;102242.41;;;2.95;91.65
16580;BME280;8402;51.466;6.806;2023-03-03T07:42:08;102248.19;;;2.92;92.28
16580;BME280;8402;51.466;6.806;2023-03-03T07:44:43;102253.38;;;2.94;91.77
16580;BME280;8402;51.466;6.806;2023-03-03T07:47:19;102256.84;;;2.94;92.42
16580;BME280;8402;51.466;6.806;2023-03-03T07:49:53;102265.34;;;2.91;92.33
16580;BME280;8402;51.466;6.806;2023-03-03T07:52:28;102256.84;;;2.94;91.99
16580;BME280;8402;51.466;6.806;2023-03-03T07:55:01;102267.94;;;2.98;92.46
16580;BME280;8402;51.466;6.806;2023-03-03T07:57:50;102270.38;;;2.99;92.25
16580;BME280;8402;51.466;6.806;2023-03-03T08:03:41;102276.94;;;3.03;92.09
16580;BME280;8402;51.466;6.806;2023-03-03T08:09:26;102272.97;;;3.06;91.92
16580;BME280;8402;51.466;6.806;2023-03-03T08:12:07;102292.06;;;3.16;91.56
16580;BME280;8402;51.466;6.806;2023-03-03T08:14:40;102290.50;;;3.09;92.17
16580;BME280;8402;51.466;6.806;2023-03-03T08:17:13;102285.97;;;3.09;92.14
16580;BME280;8402;51.466;6.806;2023-03-03T08:19:49;102297.94;;;3.07;92.24
16580;BME280;8402;51.466;6.806;2023-03-03T08:22:25;102297.13;;;3.06;92.04
16580;BME280;8402;51.466;6.806;2023-03-03T08:24:59;102296.31;;;3.06;92.53
16580;BME280;8402;51.466;6.806;2023-03-03T08:27:29;102284.41;;;3.01;92.03
16580;BME280;8402;51.466;6.806;2023-03-03T08:29:59;102289.78;;;3.01;92.23
16580;BME280;8402;51.466;6.806;2023-03-03T08:32:29;102303.31;;;3.07;92.28
16580;BME280;8402;51.466;6.806;2023-03-03T08:35:02;102298.63;;;3.02;92.13
16580;BME280;8402;51.466;6.806;2023-03-03T08:37:32;102301.31;;;3.02;92.19
16580;BME280;8402;51.466;6.806;2023-03-03T08:40:03;102299.28;;;2.97;92.94
16580;BME280;8402;51.466;6.806;2023-03-03T08:42:33;102300.94;;;2.98;92.53
16580;BME280;8402;51.466;6.806;2023-03-03T08:45:04;102302.56;;;2.99;92.47
16580;BME280;8402;51.466;6.806;2023-03-03T08:47:34;102310.31;;;3.08;92.36
16580;BME280;8402;51.466;6.806;2023-03-03T08:50:08;102305.56;;;3.10;92.06
16580;BME280;8402;51.466;6.806;2023-03-03T08:52:38;102308.66;;;3.07;92.66
16580;BME280;8402;51.466;6.806;2023-03-03T08:55:09;102310.31;;;3.08;92.67
16580;BME280;8402;51.466;6.806;2023-03-03T08:57:39;102313.91;;;3.01;93.04
16580;BME280;8402;51.466;6.806;2023-03-03T09:00:12;102313.09;;;3.01;93.27
16580;BME280;8402;51.466;6.806;2023-03-03T09:02:42;102316.94;;;3.05;92.71
16580;BME280;8402;51.466;6.806;2023-03-03T09:05:16;102323.13;;;3.06;93.17
16580;BME280;8402;51.466;6.806;2023-03-03T09:07:47;102323.94;;;3.06;92.93
16580;BME280;8402;51.466;6.806;2023-03-03T09:10:20;102317.75;;;3.06;93.07
16580;BME280;8402;51.466;6.806;2023-03-03T09:12:56;102330.13;;;3.07;93.38
16580;BME280;8402;51.466;6.806;2023-03-03T09:15:29;102331.31;;;3.11;92.92
16580;BME280;8402;51.466;6.806;2023-03-03T09:18:10;102332.59;;;3.08;92.84
16580;BME280;8402;51.466;6.806;2023-03-03T09:20:46;102327.34;;;3.13;92.84
16580;BME280;8402;51.466;6.806;2023-03-03T09:23:32;102330.50;;;3.10;92.99
16580;BME280;8402;51.466;6.806;2023-03-03T09:26:27;102333.41;;;3.09;93.20
16580;BME280;8402;51.466;6.806;2023-03-03T09:29:08;102329.72;;;3.21;92.81
16580;BME280;8402;51.466;6.806;2023-03-03T09:31:41;102337.25;;;3.31;92.84
16580;BME280;8402;51.466;6.806;2023-03-03T09:34:18;102329.78;;;3.33;93.51
16580;BME280;8402;51.466;6.806;2023-03-03T09:36:53;102331.50;;;3.27;93.51
16580;BME280;8402;51.466;6.806;2023-03-03T09:39:29;102341.34;;;3.34;93.05
16580;BME280;8402;51.466;6.806;2023-03-03T09:42:25;102334.88;;;3.23;93.00
16580;BME280;8402;51.466;6.806;2023-03-03T09:45:17;102345.16;;;3.26;93.47
16580;BME280;8402;51.466;6.806;2023-03-03T09:48:06;102346.94;;;3.32;93.10
16580;BME280;8402;51.466;6.806;2023-03-03T09:50:48;102353.50;;;3.36;93.08
16580;BME280;8402;51.466;6.806;2023-03-03T09:53:36;102345.56;;;3.41;92.96
16580;BME280;8402;51.466;6.806;2023-03-03T09:56:17;102350.28;;;3.46;92.46
16580;BME280;8402;51.466;6.806;2023-03-03T09:58:59;102344.91;;;3.46;92.68
16580;BME280;8402;51.466;6.806;2023-03-03T10:01:47;102358.09;;;3.47;93.16
16580;BME280;8402;51.466;6.806;2023-03-03T10:04:39;102347.81;;;3.44;92.90
16580;BME280;8402;51.466;6.806;2023-03-03T10:07:25;102355.31;;;3.54;92.49
16580;BME280;8402;51.466;6.806;2023-03-03T10:13:00;102359.13;;;3.65;92.21
16580;BME280;8402;51.466;6.806;2023-03-03T10:15:45;102353.28;;;3.68;92.17
16580;BME280;8402;51.466;6.806;2023-03-03T10:18:28;102356.78;;;3.68;92.01
16580;BME280;8402;51.466;6.806;2023-03-03T10:21:08;102361.09;;;3.69;92.16
16580;BME280;8402;51.466;6.806;2023-03-03T10:23:52;102363.09;;;3.74;91.93
16580;BME280;8402;51.466;6.806;2023-03-03T10:26:57;102357.03;;;3.78;91.76
16580;BME280;8402;51.466;6.806;2023-03-03T10:29:47;102366.91;;;3.96;91.66
16580;BME280;8402;51.466;6.806;2023-03-03T10:32:52;102360.00;;;3.89;91.35
16580;BME280;8402;51.466;6.806;2023-03-03T10:35:42;102367.38;;;3.93;91.16
16580;BME280;8402;51.466;6.806;2023-03-03T10:38:41;102379.28;;;3.97;91.04
16580;BME280;8402;51.466;6.806;2023-03-03T10:41:26;102379.28;;;3.97;91.31
16580;BME280;8402;51.466;6.806;2023-03-03T10:44:14;102368.53;;;3.97;91.15
16580;BME280;8402;51.466;6.806;2023-03-03T10:46:57;102367.38;;;3.93;91.71
16580;BME280;8402;51.466;6.806;2023-03-03T10:49:45;102371.09;;;3.92;90.64
16580;BME280;8402;51.466;6.806;2023-03-03T10:52:26;102370.78;;;4.00;91.14
16580;BME280;8402;51.466;6.806;2023-03-03T10:55:13;102365.28;;;3.95;90.67
16580;BME280;8402;51.466;6.806;2023-03-03T10:57:54;102369.00;;;3.94;90.70
16580;BME280;8402;51.466;6.806;2023-03-03T11:00:35;102368.09;;;4.00;91.13
16580;BME280;8402;51.466;6.806;2023-03-03T11:03:41;102370.53;;;4.02;90.51
16580;BME280;8402;51.466;6.806;2023-03-03T11:06:20;102374.28;;;4.12;90.49
16580;BME280;8402;51.466;6.806;2023-03-03T11:08:56;102369.53;;;4.14;90.54
16580;BME280;8402;51.466;6.806;2023-03-03T11:11:37;102371.03;;;4.10;90.29
16580;BME280;8402;51.466;6.806;2023-03-03T11:14:12;102371.59;;;4.12;90.20
16580;BME280;8402;51.466;6.806;2023-03-03T11:16:55;102372.91;;;4.10;89.62
16580;BME280;8402;51.466;6.806;2023-03-03T11:19:39;102364.88;;;4.22;90.09
16580;BME280;8402;51.466;6.806;2023-03-03T11:22:24;102363.81;;;4.23;89.34
16580;BME280;8402;51.466;6.806;2023-03-03T11:25:02;102368.38;;;4.22;89.21
16580;BME280;8402;51.466;6.806;2023-03-03T11:28:10;102367.31;;;4.23;89.01
16580;BME280;8402;51.466;6.806;2023-03-03T11:30:53;102353.88;;;4.35;89.64
16580;BME280;8402;51.466;6.806;2023-03-03T11:33:35;102356.69;;;4.40;89.17
16580;BME280;8402;51.466;6.806;2023-03-03T11:36:12;102347.13;;;4.44;89.35
16580;BME280;8402;51.466;6.806;2023-03-03T11:38:53;102355.66;;;4.53;89.07
16580;BME280;8402;51.466;6.806;2023-03-03T11:41:37;102344.28;;;4.62;89.19
16580;BME280;8402;51.466;6.806;2023-03-03T11:44:17;102358.34;;;4.64;88.44
16580;BME280;8402;51.466;6.806;2023-03-03T11:46:53;102345.94;;;4.63;88.19
16580;BME280;8402;51.466;6.806;2023-03-03T11:49:33;102341.84;;;4.73;88.58
16580;BME280;8402;51.466;6.806;2023-03-03T11:52:19;102344.53;;;4.73;87.30
16580;BME280;8402;51.466;6.806;2023-03-03T11:54:54;102332.00;;;4.78;88.12
16580;BME280;8402;51.466;6.806;2023-03-03T11:57:29;102324.41;;;4.87;88.32
16580;BME280;8402;51.466;6.806;2023-03-03T12:00:18;102340.63;;;5.04;88.33
16580;BME280;8402;51.466;6.806;2023-03-03T12:03:13;102334.28;;;5.10;86.33
16580;BME280;8402;51.466;6.806;2023-03-03T12:05:54;102335.59;;;5.07;85.23
16580;BME280;8402;51.466;6.806;2023-03-03T12:08:38;102325.97;;;5.11;85.57
16580;BME280;8402;51.466;6.806;2023-03-03T12:11:16;102336.72;;;5.23;86.41
16580;BME280;8402;51.466;6.806;2023-03-03T12:13:55;102330.13;;;5.31;86.64
16580;BME280;8402;51.466;6.806;2023-03-03T12:16:38;102332.91;;;5.36;86.23
16580;BME280;8402;51.466;6.806;2023-03-03T12:19:21;102322.25;;;5.41;85.89
16580;BME280;8402;51.466;6.806;2023-03-03T12:22:10;102318.28;;;5.43;85.00
16580;BME280;8402;51.466;6.806;2023-03-03T12:27:51;102319.16;;;5.49;85.21
16580;BME280;8402;51.466;6.806;2023-03-03T12:33:27;102304.94;;;5.65;85.23
16580;BME280;8402;51.466;6.806;2023-03-03T12:36:10;102309.09;;;5.73;84.93
16580;BME280;8402;51.466;6.806;2023-03-03T12:38:51;102312.09;;;5.76;83.89
16580;BME280;8402;51.466;6.806;2023-03-03T12:41:31;102302.16;;;5.77;83.43
16580;BME280;8402;51.466;6.806;2023-03-03T12:44:08;102307.06;;;5.80;84.37
16580;BME280;8402;51.466;6.806;2023-03-03T12:46:44;102301.53;;;5.87;83.80
16580;BME280;8402;51.466;6.806;2023-03-03T12:49:15;102308.63;;;5.93;84.16
16580;BME280;8402;51.466;6.806;2023-03-03T12:52:02;102309.59;;;5.87;81.91
16580;BME280;8402;51.466;6.806;2023-03-03T12:54:48;102306.19;;;5.91;82.08
16580;BME280;8402;51.466;6.806;2023-03-03T12:57:28;102307.59;;;5.94;82.69
16580;BME280;8402;51.466;6.806;2023-03-03T13:03:01;102308.25;;;6.01;81.98
16580;BME280;8402;51.466;6.806;2023-03-03T13:05:44;102305.94;;;5.93;81.20
16580;BME280;8402;51.466;6.806;2023-03-03T13:08:32;102306.41;;;5.90;81.37
16580;BME280;8402;51.466;6.806;2023-03-03T13:11:22;102302.22;;;5.94;81.60
16580;BME280;8402;51.466;6.806;2023-03-03T13:14:01;102304.50;;;6.02;81.98
16580;BME280;8402;51.466;6.806;2023-03-03T13:16:40;102302.75;;;6.13;82.63
16580;BME280;8402;51.466;6.806;2023-03-03T13:19:16;102292.38;;;6.21;81.65
16580;BME280;8402;51.466;6.806;2023-03-03T13:21:52;102294.19;;;6.32;81.92
16580;BME280;8402;51.466;6.806;2023-03-03T13:24:27;102287.88;;;6.44;81.15
16580;BME280;8402;51.466;6.806;2023-03-03T13:27:07;102286.84;;;6.50;81.28
16580;BME280;8402;51.466;6.806;2023-03-03T13:29:41;102294.94;;;6.50;80.79
16580;BME280;8402;51.466;6.806;2023-03-03T13:32:14;102287.94;;;6.49;80.75
16580;BME280;8402;51.466;6.806;2023-03-03T13:34:51;102286.31;;;6.48;80.35
16580;BME280;8402;51.466;6.806;2023-03-03T13:37:27;102287.63;;;6.45;79.41
16580;BME280;8402;51.466;6.806;2023-03-03T13:40:00;102279.09;;;6.53;80.84
16580;BME280;8402;51.466;6.806;2023-03-03T13:42:39;102278.94;;;6.60;80.57
16580;BME280;8402;51.466;6.806;2023-03-03T13:45:17;102272.28;;;6.68;80.62
16580;BME280;8402;51.466;6.806;2023-03-03T13:47:57;102266.97;;;6.73;78.48
16580;BME280;8402;51.466;6.806;2023-03-03T13:50:31;102265.81;;;6.69;78.25
16580;BME280;8402;51.466;6.806;2023-03-03T13:53:18;102260.75;;;6.72;78.84
16580;BME280;8402;51.466;6.806;2023-03-03T13:55:57;102252.69;;;6.77;78.59
16580;BME280;8402;51.466;6.806;2023-03-03T13:58:36;102258.69;;;6.79;78.34
16580;BME280;8402;51.466;6.806;2023-03-03T14:01:14;102247.94;;;6.84;78.55
16580;BME280;8402;51.466;6.806;2023-03-03T14:03:57;102253.41;;;6.89;77.97
16580;BME280;8402;51.466;6.806;2023-03-03T14:06:28;102251.06;;;6.98;78.63
16580;BME280;8402;51.466;6.806;2023-03-03T14:09:05;102247.63;;;7.03;77.70
16580;BME280;8402;51.466;6.806;2023-03-03T14:11:45;102242.28;;;7.08;78.09
16580;BME280;8402;51.466;6.806;2023-03-03T14:14:32;102250.19;;;7.14;77.65